Terminal Aerodrome Forecast
Issued by NWS

Home | Current Version | Previous Version | Text Only | Print | Product List | Glossary On
Versions: 1 2 3 4 5 6 7 8 9 10 11 12
000
FTUS44 KLZK 022331
TAFLLQ
TAF
KLLQ 022331Z 0300/0324 09005KT P6SM SCT250
     FM030100 VRB03KT P6SM SCT250
     FM031500 21004KT P6SM FEW050 SCT250
     FM031900 10005KT P6SM SCT060 SCT250=

USA.gov is the U.S. government's official web portal to all federal, state and local government web resources and services.